sensor_id;sensor_type;location;lat;lon;timestamp;pressure;altitude;pressure_sealevel;temperature;humidity
50380;BME280;37474;59.468;18.040;2023-02-28T00:00:37;102552.19;;;-1.47;100.00
50380;BME280;37474;59.468;18.040;2023-02-28T00:03:07;102547.66;;;-1.59;100.00
50380;BME280;37474;59.468;18.040;2023-02-28T00:05:35;102553.63;;;-1.57;100.00
50380;BME280;37474;59.468;18.040;2023-02-28T00:08:04;102518.88;;;-1.25;100.00
50380;BME280;37474;59.468;18.040;2023-02-28T00:10:35;102548.78;;;-1.49;100.00
50380;BME280;37474;59.468;18.040;2023-02-28T00:13:06;102527.97;;;-1.95;100.00
50380;BME280;37474;59.468;18.040;2023-02-28T00:15:34;102549.44;;;-2.15;100.00
50380;BME280;37474;59.468;18.040;2023-02-28T00:18:04;102520.78;;;-2.38;100.00
50380;BME280;37474;59.468;18.040;2023-02-28T00:20:34;102552.00;;;-2.14;100.00
50380;BME280;37474;59.468;18.040;2023-02-28T00:23:02;102554.22;;;-2.51;100.00
50380;BME280;37474;59.468;18.040;2023-02-28T00:25:32;102556.84;;;-2.50;100.00
50380;BME280;37474;59.468;18.040;2023-02-28T00:28:04;102553.19;;;-2.58;100.00
50380;BME280;37474;59.468;18.040;2023-02-28T00:30:33;102526.00;;;-2.87;100.00
50380;BME280;37474;59.468;18.040;2023-02-28T00:33:02;102519.88;;;-2.94;100.00
50380;BME280;37474;59.468;18.040;2023-02-28T00:35:32;102538.44;;;-2.43;100.00
50380;BME280;37474;59.468;18.040;2023-02-28T00:38:00;102540.09;;;-2.16;100.00
50380;BME280;37474;59.468;18.040;2023-02-28T00:40:30;102515.53;;;-2.44;100.00
50380;BME280;37474;59.468;18.040;2023-02-28T00:43:02;102540.31;;;-2.35;100.00
50380;BME280;37474;59.468;18.040;2023-02-28T00:45:30;102489.41;;;-2.67;100.00
50380;BME280;37474;59.468;18.040;2023-02-28T00:48:02;102540.34;;;-2.62;100.00
50380;BME280;37474;59.468;18.040;2023-02-28T00:50:30;102541.44;;;-2.81;100.00
50380;BME280;37474;59.468;18.040;2023-02-28T00:52:58;102532.66;;;-2.64;100.00
50380;BME280;37474;59.468;18.040;2023-02-28T00:55:30;102494.88;;;-2.82;100.00
50380;BME280;37474;59.468;18.040;2023-02-28T00:57:57;102523.41;;;-2.62;100.00
50380;BME280;37474;59.468;18.040;2023-02-28T01:00:27;102525.81;;;-2.67;100.00
50380;BME280;37474;59.468;18.040;2023-02-28T01:02:58;102526.59;;;-2.69;100.00
50380;BME280;37474;59.468;18.040;2023-02-28T01:05:28;102533.56;;;-2.62;100.00
50380;BME280;37474;59.468;18.040;2023-02-28T01:07:56;102504.06;;;-2.85;100.00
50380;BME280;37474;59.468;18.040;2023-02-28T01:10:30;102537.88;;;-2.61;100.00
50380;BME280;37474;59.468;18.040;2023-02-28T01:13:00;102520.78;;;-2.92;100.00
50380;BME280;37474;59.468;18.040;2023-02-28T01:15:31;102532.31;;;-2.75;100.00
50380;BME280;37474;59.468;18.040;2023-02-28T01:18:00;102519.13;;;-2.90;100.00
50380;BME280;37474;59.468;18.040;2023-02-28T01:20:30;102501.13;;;-3.23;100.00
50380;BME280;37474;59.468;18.040;2023-02-28T01:22:59;102528.56;;;-3.11;100.00
50380;BME280;37474;59.468;18.040;2023-02-28T01:25:27;102532.00;;;-3.11;100.00
50380;BME280;37474;59.468;18.040;2023-02-28T01:27:57;102529.94;;;-2.96;100.00
50380;BME280;37474;59.468;18.040;2023-02-28T01:30:27;102504.09;;;-2.84;100.00
50380;BME280;37474;59.468;18.040;2023-02-28T01:32:57;102535.41;;;-2.58;100.00
50380;BME280;37474;59.468;18.040;2023-02-28T01:35:27;102521.53;;;-2.68;100.00
50380;BME280;37474;59.468;18.040;2023-02-28T01:37:57;102540.63;;;-2.53;100.00
50380;BME280;37474;59.468;18.040;2023-02-28T01:40:41;102546.31;;;-2.87;100.00
50380;BME280;37474;59.468;18.040;2023-02-28T01:43:20;102553.31;;;-2.80;100.00
50380;BME280;37474;59.468;18.040;2023-02-28T01:45:48;102556.84;;;-3.01;100.00
50380;BME280;37474;59.468;18.040;2023-02-28T01:48:24;102521.38;;;-3.25;100.00
50380;BME280;37474;59.468;18.040;2023-02-28T01:50:58;102545.44;;;-2.88;100.00
50380;BME280;37474;59.468;18.040;2023-02-28T01:53:33;102545.84;;;-2.76;100.00
50380;BME280;37474;59.468;18.040;2023-02-28T01:56:06;102523.19;;;-2.43;100.00
50380;BME280;37474;59.468;18.040;2023-02-28T01:58:36;102516.66;;;-1.76;100.00
50380;BME280;37474;59.468;18.040;2023-02-28T02:01:05;102507.66;;;-1.65;100.00
50380;BME280;37474;59.468;18.040;2023-02-28T02:03:36;102521.19;;;-1.96;100.00
50380;BME280;37474;59.468;18.040;2023-02-28T02:06:08;102529.16;;;-2.12;100.00
50380;BME280;37474;59.468;18.040;2023-02-28T02:08:36;102507.84;;;-2.46;100.00
50380;BME280;37474;59.468;18.040;2023-02-28T02:11:07;102519.00;;;-2.68;100.00
50380;BME280;37474;59.468;18.040;2023-02-28T02:13:55;102515.25;;;-2.25;100.00
50380;BME280;37474;59.468;18.040;2023-02-28T02:16:39;102482.22;;;-2.53;100.00
50380;BME280;37474;59.468;18.040;2023-02-28T02:22:43;102533.53;;;-2.63;100.00
50380;BME280;37474;59.468;18.040;2023-02-28T02:25:27;102528.31;;;-2.68;100.00
50380;BME280;37474;59.468;18.040;2023-02-28T02:28:06;102508.94;;;-3.17;100.00
50380;BME280;37474;59.468;18.040;2023-02-28T02:30:58;102535.94;;;-3.19;100.00
50380;BME280;37474;59.468;18.040;2023-02-28T02:36:33;102525.63;;;-3.24;100.00
50380;BME280;37474;59.468;18.040;2023-02-28T02:39:06;102537.25;;;-3.30;100.00
50380;BME280;37474;59.468;18.040;2023-02-28T02:41:46;102537.47;;;-3.48;100.00
50380;BME280;37474;59.468;18.040;2023-02-28T02:44:20;102515.78;;;-3.40;100.00
50380;BME280;37474;59.468;18.040;2023-02-28T02:46:57;102515.72;;;-3.41;100.00
50380;BME280;37474;59.468;18.040;2023-02-28T02:49:30;102498.31;;;-3.80;100.00
50380;BME280;37474;59.468;18.040;2023-02-28T02:52:05;102478.97;;;-3.29;100.00
50380;BME280;37474;59.468;18.040;2023-02-28T02:54:36;102512.81;;;-3.03;100.00
50380;BME280;37474;59.468;18.040;2023-02-28T02:57:12;102543.66;;;-2.90;100.00
50380;BME280;37474;59.468;18.040;2023-02-28T02:59:43;102506.63;;;-3.11;100.00
50380;BME280;37474;59.468;18.040;2023-02-28T03:02:14;102534.13;;;-2.98;100.00
50380;BME280;37474;59.468;18.040;2023-02-28T03:04:45;102528.44;;;-3.16;100.00
50380;BME280;37474;59.468;18.040;2023-02-28T03:07:20;102507.50;;;-3.60;100.00
50380;BME280;37474;59.468;18.040;2023-02-28T03:09:51;102524.78;;;-3.72;100.00
50380;BME280;37474;59.468;18.040;2023-02-28T03:12:23;102473.03;;;-4.03;100.00
50380;BME280;37474;59.468;18.040;2023-02-28T03:14:56;102504.53;;;-3.94;100.00
50380;BME280;37474;59.468;18.040;2023-02-28T03:17:52;102523.91;;;-3.96;100.00
50380;BME280;37474;59.468;18.040;2023-02-28T03:20:34;102521.25;;;-3.77;100.00
50380;BME280;37474;59.468;18.040;2023-02-28T03:23:13;102489.03;;;-4.04;100.00
50380;BME280;37474;59.468;18.040;2023-02-28T03:25:52;102515.63;;;-3.68;100.00
50380;BME280;37474;59.468;18.040;2023-02-28T03:28:31;102518.97;;;-3.93;100.00
50380;BME280;37474;59.468;18.040;2023-02-28T03:31:09;102492.84;;;-4.15;100.00
50380;BME280;37474;59.468;18.040;2023-02-28T03:33:44;102520.50;;;-3.97;100.00
50380;BME280;37474;59.468;18.040;2023-02-28T03:36:26;102526.09;;;-4.06;100.00
50380;BME280;37474;59.468;18.040;2023-02-28T03:39:04;102529.44;;;-4.07;100.00
50380;BME280;37474;59.468;18.040;2023-02-28T03:41:38;102483.53;;;-4.38;100.00
50380;BME280;37474;59.468;18.040;2023-02-28T03:44:16;102510.66;;;-4.12;100.00
50380;BME280;37474;59.468;18.040;2023-02-28T03:46:51;102530.13;;;-3.88;100.00
50380;BME280;37474;59.468;18.040;2023-02-28T03:49:26;102526.88;;;-3.84;100.00
50380;BME280;37474;59.468;18.040;2023-02-28T03:51:56;102486.69;;;-4.21;100.00
50380;BME280;37474;59.468;18.040;2023-02-28T03:54:33;102518.38;;;-3.86;100.00
50380;BME280;37474;59.468;18.040;2023-02-28T03:57:08;102475.81;;;-4.19;100.00
50380;BME280;37474;59.468;18.040;2023-02-28T03:59:45;102514.16;;;-3.86;100.00
50380;BME280;37474;59.468;18.040;2023-02-28T04:02:15;102511.13;;;-3.77;100.00
50380;BME280;37474;59.468;18.040;2023-02-28T04:04:45;102521.47;;;-3.71;100.00
50380;BME280;37474;59.468;18.040;2023-02-28T04:07:15;102515.63;;;-3.92;100.00
50380;BME280;37474;59.468;18.040;2023-02-28T04:09:49;102509.28;;;-3.81;100.00
50380;BME280;37474;59.468;18.040;2023-02-28T04:12:17;102512.44;;;-3.87;100.00
50380;BME280;37474;59.468;18.040;2023-02-28T04:14:54;102483.25;;;-3.77;100.00
50380;BME280;37474;59.468;18.040;2023-02-28T04:17:22;102517.16;;;-3.50;100.00
50380;BME280;37474;59.468;18.040;2023-02-28T04:19:50;102470.22;;;-3.86;100.00
50380;BME280;37474;59.468;18.040;2023-02-28T04:22:21;102488.44;;;-3.96;100.00
50380;BME280;37474;59.468;18.040;2023-02-28T04:24:55;102503.13;;;-3.88;100.00
50380;BME280;37474;59.468;18.040;2023-02-28T04:27:25;102512.84;;;-3.01;100.00
50380;BME280;37474;59.468;18.040;2023-02-28T04:29:53;102461.94;;;-3.33;100.00
50380;BME280;37474;59.468;18.040;2023-02-28T04:32:23;102504.97;;;-2.83;100.00
50380;BME280;37474;59.468;18.040;2023-02-28T04:34:51;102503.19;;;-2.60;100.00
50380;BME280;37474;59.468;18.040;2023-02-28T04:37:18;102507.03;;;-2.99;100.00
50380;BME280;37474;59.468;18.040;2023-02-28T04:39:49;102502.66;;;-2.77;100.00
50380;BME280;37474;59.468;18.040;2023-02-28T04:42:18;102494.28;;;-3.26;100.00
50380;BME280;37474;59.468;18.040;2023-02-28T04:44:46;102489.03;;;-3.56;100.00
50380;BME280;37474;59.468;18.040;2023-02-28T04:47:18;102499.56;;;-3.69;100.00
50380;BME280;37474;59.468;18.040;2023-02-28T04:49:46;102501.19;;;-3.71;100.00
50380;BME280;37474;59.468;18.040;2023-02-28T04:52:14;102524.69;;;-3.75;100.00
50380;BME280;37474;59.468;18.040;2023-02-28T04:54:46;102526.75;;;-3.65;100.00
50380;BME280;37474;59.468;18.040;2023-02-28T04:57:15;102496.34;;;-3.39;100.00
50380;BME280;37474;59.468;18.040;2023-02-28T04:59:44;102524.78;;;-3.24;100.00
50380;BME280;37474;59.468;18.040;2023-02-28T05:02:14;102526.38;;;-3.52;100.00
50380;BME280;37474;59.468;18.040;2023-02-28T05:04:45;102528.75;;;-3.32;100.00
50380;BME280;37474;59.468;18.040;2023-02-28T05:07:12;102526.97;;;-3.59;100.00
50380;BME280;37474;59.468;18.040;2023-02-28T05:09:42;102529.53;;;-3.81;100.00
50380;BME280;37474;59.468;18.040;2023-02-28T05:12:12;102541.19;;;-3.86;100.00
50380;BME280;37474;59.468;18.040;2023-02-28T05:14:40;102522.91;;;-4.00;100.00
50380;BME280;37474;59.468;18.040;2023-02-28T05:17:11;102540.88;;;-3.72;100.00
50380;BME280;37474;59.468;18.040;2023-02-28T05:19:41;102526.00;;;-4.09;100.00
50380;BME280;37474;59.468;18.040;2023-02-28T05:22:15;102530.59;;;-3.99;100.00
50380;BME280;37474;59.468;18.040;2023-02-28T05:24:46;102532.53;;;-3.91;100.00
50380;BME280;37474;59.468;18.040;2023-02-28T05:27:13;102542.25;;;-3.56;100.00
50380;BME280;37474;59.468;18.040;2023-02-28T05:29:43;102546.09;;;-3.19;100.00
50380;BME280;37474;59.468;18.040;2023-02-28T05:32:15;102502.00;;;-3.48;100.00
50380;BME280;37474;59.468;18.040;2023-02-28T05:34:42;102543.75;;;-3.38;100.00
50380;BME280;37474;59.468;18.040;2023-02-28T05:37:13;102550.03;;;-3.51;100.00
50380;BME280;37474;59.468;18.040;2023-02-28T05:39:43;102518.47;;;-3.83;100.00
50380;BME280;37474;59.468;18.040;2023-02-28T05:42:13;102543.34;;;-3.73;100.00
50380;BME280;37474;59.468;18.040;2023-02-28T05:44:41;102492.66;;;-4.19;100.00
50380;BME280;37474;59.468;18.040;2023-02-28T05:47:11;102545.91;;;-3.95;100.00
50380;BME280;37474;59.468;18.040;2023-02-28T05:49:45;102535.25;;;-3.87;100.00
50380;BME280;37474;59.468;18.040;2023-02-28T05:52:16;102535.91;;;-3.45;100.00
50380;BME280;37474;59.468;18.040;2023-02-28T05:54:48;102547.34;;;-3.32;100.00
50380;BME280;37474;59.468;18.040;2023-02-28T05:57:18;102537.38;;;-3.51;100.00
50380;BME280;37474;59.468;18.040;2023-02-28T05:59:50;102487.91;;;-3.64;100.00
50380;BME280;37474;59.468;18.040;2023-02-28T06:02:18;102541.31;;;-3.59;100.00
50380;BME280;37474;59.468;18.040;2023-02-28T06:04:49;102546.22;;;-3.40;100.00
50380;BME280;37474;59.468;18.040;2023-02-28T06:07:19;102550.50;;;-2.62;100.00
50380;BME280;37474;59.468;18.040;2023-02-28T06:09:51;102539.03;;;-2.77;100.00
50380;BME280;37474;59.468;18.040;2023-02-28T06:12:21;102554.97;;;-2.55;100.00
50380;BME280;37474;59.468;18.040;2023-02-28T06:14:49;102519.31;;;-3.11;100.00
50380;BME280;37474;59.468;18.040;2023-02-28T06:17:16;102557.25;;;-3.14;100.00
50380;BME280;37474;59.468;18.040;2023-02-28T06:19:48;102562.09;;;-3.22;100.00
50380;BME280;37474;59.468;18.040;2023-02-28T06:22:18;102532.25;;;-3.53;100.00
50380;BME280;37474;59.468;18.040;2023-02-28T06:24:46;102567.00;;;-3.26;100.00
50380;BME280;37474;59.468;18.040;2023-02-28T06:27:17;102558.38;;;-3.55;100.00
50380;BME280;37474;59.468;18.040;2023-02-28T06:29:55;102557.06;;;-3.44;100.00
50380;BME280;37474;59.468;18.040;2023-02-28T06:32:25;102557.59;;;-3.29;100.00
50380;BME280;37474;59.468;18.040;2023-02-28T06:34:56;102555.78;;;-3.33;100.00
50380;BME280;37474;59.468;18.040;2023-02-28T06:37:24;102550.53;;;-3.37;100.00
50380;BME280;37474;59.468;18.040;2023-02-28T06:39:55;102519.38;;;-3.33;100.00
50380;BME280;37474;59.468;18.040;2023-02-28T06:42:27;102578.81;;;-3.01;100.00
50380;BME280;37474;59.468;18.040;2023-02-28T06:44:57;102577.59;;;-2.61;100.00
50380;BME280;37474;59.468;18.040;2023-02-28T06:47:25;102572.16;;;-2.72;100.00
50380;BME280;37474;59.468;18.040;2023-02-28T06:49:58;102557.34;;;-2.60;100.00
50380;BME280;37474;59.468;18.040;2023-02-28T06:52:28;102541.94;;;-2.10;100.00
50380;BME280;37474;59.468;18.040;2023-02-28T06:54:55;102572.25;;;-1.58;100.00
50380;BME280;37474;59.468;18.040;2023-02-28T06:57:33;102572.50;;;-1.17;100.00
50380;BME280;37474;59.468;18.040;2023-02-28T07:00:05;102563.25;;;-1.15;100.00
50380;BME280;37474;59.468;18.040;2023-02-28T07:02:38;102535.25;;;-1.15;100.00
50380;BME280;37474;59.468;18.040;2023-02-28T07:05:08;102549.16;;;-1.01;100.00
50380;BME280;37474;59.468;18.040;2023-02-28T07:07:36;102532.47;;;-0.90;100.00
50380;BME280;37474;59.468;18.040;2023-02-28T07:10:09;102535.78;;;-0.58;100.00
50380;BME280;37474;59.468;18.040;2023-02-28T07:12:37;102567.63;;;-0.40;100.00
50380;BME280;37474;59.468;18.040;2023-02-28T07:15:06;102557.81;;;-0.23;100.00
50380;BME280;37474;59.468;18.040;2023-02-28T07:17:36;102557.88;;;0.19;100.00
50380;BME280;37474;59.468;18.040;2023-02-28T07:20:09;102557.03;;;0.20;100.00
50380;BME280;37474;59.468;18.040;2023-02-28T07:22:38;102557.16;;;0.26;100.00
50380;BME280;37474;59.468;18.040;2023-02-28T07:25:07;102555.19;;;0.11;100.00
50380;BME280;37474;59.468;18.040;2023-02-28T07:27:38;102561.38;;;0.24;100.00
50380;BME280;37474;59.468;18.040;2023-02-28T07:30:08;102554.72;;;0.31;100.00
50380;BME280;37474;59.468;18.040;2023-02-28T07:32:36;102494.34;;;-0.11;100.00
50380;BME280;37474;59.468;18.040;2023-02-28T07:35:08;102521.75;;;-0.01;100.00
50380;BME280;37474;59.468;18.040;2023-02-28T07:37:36;102527.88;;;0.06;100.00
50380;BME280;37474;59.468;18.040;2023-02-28T07:40:06;102557.94;;;0.66;100.00
50380;BME280;37474;59.468;18.040;2023-02-28T07:42:36;102555.75;;;0.86;99.27
50380;BME280;37474;59.468;18.040;2023-02-28T07:45:08;102525.88;;;0.82;98.51
50380;BME280;37474;59.468;18.040;2023-02-28T07:47:45;102551.25;;;1.21;96.28
50380;BME280;37474;59.468;18.040;2023-02-28T07:50:17;102547.81;;;1.20;95.59
50380;BME280;37474;59.468;18.040;2023-02-28T07:52:45;102551.50;;;1.36;95.06
50380;BME280;37474;59.468;18.040;2023-02-28T07:55:15;102556.63;;;1.38;94.41
50380;BME280;37474;59.468;18.040;2023-02-28T07:57:48;102520.75;;;1.30;92.95
50380;BME280;37474;59.468;18.040;2023-02-28T08:00:18;102547.34;;;1.43;93.34
50380;BME280;37474;59.468;18.040;2023-02-28T08:02:54;102548.63;;;1.72;92.13
50380;BME280;37474;59.468;18.040;2023-02-28T08:05:26;102531.56;;;1.71;91.68
50380;BME280;37474;59.468;18.040;2023-02-28T08:07:53;102536.03;;;1.88;90.61
50380;BME280;37474;59.468;18.040;2023-02-28T08:10:21;102536.88;;;1.85;90.25
50380;BME280;37474;59.468;18.040;2023-02-28T08:12:54;102491.47;;;1.67;89.31
50380;BME280;37474;59.468;18.040;2023-02-28T08:15:22;102538.69;;;1.94;90.30
50380;BME280;37474;59.468;18.040;2023-02-28T08:17:49;102526.88;;;2.02;88.61
50380;BME280;37474;59.468;18.040;2023-02-28T08:20:21;102538.94;;;2.12;87.90
50380;BME280;37474;59.468;18.040;2023-02-28T08:22:51;102556.13;;;2.22;89.34
50380;BME280;37474;59.468;18.040;2023-02-28T08:25:19;102532.84;;;2.02;87.14
50380;BME280;37474;59.468;18.040;2023-02-28T08:27:51;102548.53;;;2.28;87.79
50380;BME280;37474;59.468;18.040;2023-02-28T08:30:19;102551.22;;;2.41;85.33
50380;BME280;37474;59.468;18.040;2023-02-28T08:32:47;102552.75;;;2.26;85.99
50380;BME280;37474;59.468;18.040;2023-02-28T08:35:19;102559.34;;;2.09;87.45
50380;BME280;37474;59.468;18.040;2023-02-28T08:37:47;102551.69;;;2.10;87.24
50380;BME280;37474;59.468;18.040;2023-02-28T08:40:16;102525.88;;;1.92;87.55
50380;BME280;37474;59.468;18.040;2023-02-28T08:42:49;102548.38;;;2.18;87.28
50380;BME280;37474;59.468;18.040;2023-02-28T08:45:17;102543.13;;;2.07;88.40
50380;BME280;37474;59.468;18.040;2023-02-28T08:47:45;102536.25;;;2.04;87.19
50380;BME280;37474;59.468;18.040;2023-02-28T08:50:17;102547.53;;;2.20;87.37
50380;BME280;37474;59.468;18.040;2023-02-28T08:52:45;102533.53;;;2.62;85.17
50380;BME280;37474;59.468;18.040;2023-02-28T08:55:13;102502.06;;;2.75;82.90
50380;BME280;37474;59.468;18.040;2023-02-28T08:57:46;102492.81;;;2.92;82.17
50380;BME280;37474;59.468;18.040;2023-02-28T09:00:16;102526.34;;;3.17;82.19
50380;BME280;37474;59.468;18.040;2023-02-28T09:02:44;102527.28;;;3.30;80.50
50380;BME280;37474;59.468;18.040;2023-02-28T09:05:13;102515.41;;;3.42;80.18
50380;BME280;37474;59.468;18.040;2023-02-28T09:07:43;102499.28;;;3.59;78.98
50380;BME280;37474;59.468;18.040;2023-02-28T09:10:11;102507.09;;;3.79;78.09
50380;BME280;37474;59.468;18.040;2023-02-28T09:12:41;102501.03;;;3.69;78.85
50380;BME280;37474;59.468;18.040;2023-02-28T09:15:18;102496.03;;;3.95;77.42
50380;BME280;37474;59.468;18.040;2023-02-28T09:17:48;102496.00;;;3.84;77.83
50380;BME280;37474;59.468;18.040;2023-02-28T09:20:16;102496.81;;;3.82;76.89
50380;BME280;37474;59.468;18.040;2023-02-28T09:22:46;102493.47;;;3.96;76.82
50380;BME280;37474;59.468;18.040;2023-02-28T09:25:17;102489.94;;;3.76;77.39
50380;BME280;37474;59.468;18.040;2023-02-28T09:27:44;102484.06;;;3.95;77.40
50380;BME280;37474;59.468;18.040;2023-02-28T09:30:16;102475.56;;;4.09;76.00
50380;BME280;37474;59.468;18.040;2023-02-28T09:32:46;102467.88;;;4.15;75.68
50380;BME280;37474;59.468;18.040;2023-02-28T09:35:20;102467.88;;;4.12;75.83
50380;BME280;37474;59.468;18.040;2023-02-28T09:37:51;102425.09;;;4.08;75.10
50380;BME280;37474;59.468;18.040;2023-02-28T09:40:22;102476.53;;;4.50;73.90
50380;BME280;37474;59.468;18.040;2023-02-28T09:42:55;102478.25;;;4.67;73.60
50380;BME280;37474;59.468;18.040;2023-02-28T09:45:35;102446.56;;;4.66;72.49
50380;BME280;37474;59.468;18.040;2023-02-28T09:48:09;102450.84;;;4.81;72.28
50380;BME280;37474;59.468;18.040;2023-02-28T09:50:46;102451.72;;;4.79;72.44
50380;BME280;37474;59.468;18.040;2023-02-28T09:53:20;102474.84;;;4.95;72.45
50380;BME280;37474;59.468;18.040;2023-02-28T09:55:55;102477.41;;;4.97;72.25
50380;BME280;37474;59.468;18.040;2023-02-28T09:58:32;102452.56;;;4.67;73.21
50380;BME280;37474;59.468;18.040;2023-02-28T10:01:12;102481.69;;;4.81;72.90
50380;BME280;37474;59.468;18.040;2023-02-28T10:03:47;102476.53;;;4.58;73.47
50380;BME280;37474;59.468;18.040;2023-02-28T10:06:26;102461.13;;;4.44;73.51
50380;BME280;37474;59.468;18.040;2023-02-28T10:09:00;102464.53;;;4.60;73.13
50380;BME280;37474;59.468;18.040;2023-02-28T10:11:35;102491.97;;;4.86;71.99
50380;BME280;37474;59.468;18.040;2023-02-28T10:14:11;102480.84;;;4.85;72.12
50380;BME280;37474;59.468;18.040;2023-02-28T10:16:48;102497.97;;;5.08;71.59
50380;BME280;37474;59.468;18.040;2023-02-28T10:19:26;102473.97;;;5.01;70.60
50380;BME280;37474;59.468;18.040;2023-02-28T10:22:03;102484.22;;;5.38;70.31
50380;BME280;37474;59.468;18.040;2023-02-28T10:24:35;102491.09;;;5.26;69.96
50380;BME280;37474;59.468;18.040;2023-02-28T10:27:13;102500.53;;;5.15;70.80
50380;BME280;37474;59.468;18.040;2023-02-28T10:29:44;102491.94;;;5.30;70.03
50380;BME280;37474;59.468;18.040;2023-02-28T10:32:17;102495.38;;;5.21;69.95
50380;BME280;37474;59.468;18.040;2023-02-28T10:34:51;102486.78;;;5.36;69.49
50380;BME280;37474;59.468;18.040;2023-02-28T10:37:23;102499.66;;;5.30;69.62
50380;BME280;37474;59.468;18.040;2023-02-28T10:39:51;102489.38;;;5.30;68.80
50380;BME280;37474;59.468;18.040;2023-02-28T10:42:22;102497.03;;;5.67;67.90
50380;BME280;37474;59.468;18.040;2023-02-28T10:45:14;102472.16;;;5.61;68.05
50380;BME280;37474;59.468;18.040;2023-02-28T10:47:52;102491.03;;;5.62;68.11
50380;BME280;37474;59.468;18.040;2023-02-28T10:50:29;102484.09;;;5.91;67.13
50380;BME280;37474;59.468;18.040;2023-02-28T10:53:17;102482.34;;;5.96;66.55
50380;BME280;37474;59.468;18.040;2023-02-28T10:56:02;102490.03;;;6.04;66.25
50380;BME280;37474;59.468;18.040;2023-02-28T10:58:47;102490.84;;;6.11;64.75
50380;BME280;37474;59.468;18.040;2023-02-28T11:01:21;102502.06;;;6.03;65.44
50380;BME280;37474;59.468;18.040;2023-02-28T11:03:51;102510.66;;;6.05;65.77
50380;BME280;37474;59.468;18.040;2023-02-28T11:06:26;102499.38;;;6.22;65.80
50380;BME280;37474;59.468;18.040;2023-02-28T11:08:57;102494.31;;;6.09;65.81
50380;BME280;37474;59.468;18.040;2023-02-28T11:11:31;102493.38;;;6.26;65.34
50380;BME280;37474;59.468;18.040;2023-02-28T11:14:18;102496.81;;;6.23;65.19
50380;BME280;37474;59.468;18.040;2023-02-28T11:16:52;102487.28;;;6.41;64.13
50380;BME280;37474;59.468;18.040;2023-02-28T11:19:25;102487.22;;;6.48;63.11
50380;BME280;37474;59.468;18.040;2023-02-28T11:21:56;102489.59;;;6.77;63.87
50380;BME280;37474;59.468;18.040;2023-02-28T11:24:30;102476.94;;;6.47;63.53
50380;BME280;37474;59.468;18.040;2023-02-28T11:27:01;102496.66;;;6.55;63.32
50380;BME280;37474;59.468;18.040;2023-02-28T11:29:31;102445.13;;;6.51;62.89
50380;BME280;37474;59.468;18.040;2023-02-28T11:32:09;102475.84;;;6.83;62.64
50380;BME280;37474;59.468;18.040;2023-02-28T11:34:44;102480.22;;;6.66;62.79
50380;BME280;37474;59.468;18.040;2023-02-28T11:37:15;102475.69;;;6.97;62.96
50380;BME280;37474;59.468;18.040;2023-02-28T11:39:47;102465.53;;;6.80;62.18
50380;BME280;37474;59.468;18.040;2023-02-28T11:42:48;102471.59;;;6.73;62.59
50380;BME280;37474;59.468;18.040;2023-02-28T11:45:37;102476.00;;;6.58;63.04
50380;BME280;37474;59.468;18.040;2023-02-28T11:48:17;102475.16;;;6.56;63.03
50380;BME280;37474;59.468;18.040;2023-02-28T11:50:56;102473.47;;;6.52;63.70
50380;BME280;37474;59.468;18.040;2023-02-28T11:53:38;102457.16;;;6.52;63.55
50380;BME280;37474;59.468;18.040;2023-02-28T11:56:16;102452.97;;;6.32;64.61
50380;BME280;37474;59.468;18.040;2023-02-28T11:58:57;102452.91;;;6.43;64.26
50380;BME280;37474;59.468;18.040;2023-02-28T12:01:45;102458.72;;;6.70;63.85
50380;BME280;37474;59.468;18.040;2023-02-28T12:04:24;102439.72;;;6.81;62.62
50380;BME280;37474;59.468;18.040;2023-02-28T12:07:04;102439.56;;;6.98;62.05
50380;BME280;37474;59.468;18.040;2023-02-28T12:09:45;102444.59;;;7.13;61.74
50380;BME280;37474;59.468;18.040;2023-02-28T12:12:29;102448.06;;;7.11;60.64
50380;BME280;37474;59.468;18.040;2023-02-28T12:15:13;102446.13;;;7.31;60.33
50380;BME280;37474;59.468;18.040;2023-02-28T12:17:57;102447.72;;;7.43;59.82
50380;BME280;37474;59.468;18.040;2023-02-28T12:20:31;102441.53;;;7.59;59.71
50380;BME280;37474;59.468;18.040;2023-02-28T12:23:17;102438.97;;;7.55;58.42
50380;BME280;37474;59.468;18.040;2023-02-28T12:26:07;102435.59;;;7.51;58.93
50380;BME280;37474;59.468;18.040;2023-02-28T12:28:44;102430.28;;;7.66;58.55
50380;BME280;37474;59.468;18.040;2023-02-28T12:31:18;102410.53;;;7.59;58.53
50380;BME280;37474;59.468;18.040;2023-02-28T12:33:55;102429.50;;;7.58;58.34
50380;BME280;37474;59.468;18.040;2023-02-28T12:36:27;102413.97;;;7.61;58.54
50380;BME280;37474;59.468;18.040;2023-02-28T12:39:01;102397.50;;;7.70;57.41
50380;BME280;37474;59.468;18.040;2023-02-28T12:41:37;102435.78;;;8.04;57.42
50380;BME280;37474;59.468;18.040;2023-02-28T12:44:12;102437.91;;;7.74;57.92
50380;BME280;37474;59.468;18.040;2023-02-28T12:46:45;102441.66;;;7.50;58.87
50380;BME280;37474;59.468;18.040;2023-02-28T12:49:22;102444.28;;;7.46;58.46
50380;BME280;37474;59.468;18.040;2023-02-28T12:51:53;102435.47;;;7.63;58.75
50380;BME280;37474;59.468;18.040;2023-02-28T12:54:28;102446.31;;;7.90;57.83
50380;BME280;37474;59.468;18.040;2023-02-28T12:57:06;102442.28;;;7.69;58.03
50380;BME280;37474;59.468;18.040;2023-02-28T12:59:42;102440.47;;;7.76;58.15
50380;BME280;37474;59.468;18.040;2023-02-28T13:02:42;102451.34;;;7.99;56.93
50380;BME280;37474;59.468;18.040;2023-02-28T13:05:44;102453.03;;;8.03;56.77
50380;BME280;37474;59.468;18.040;2023-02-28T13:11:28;102430.66;;;8.02;56.84
50380;BME280;37474;59.468;18.040;2023-02-28T13:14:01;102406.03;;;7.77;58.05
50380;BME280;37474;59.468;18.040;2023-02-28T13:16:48;102431.13;;;7.65;58.08